KSOP/SOP METAR and TAF weather

Enter ICAO airport designator
Station Type Date Time Source
KSOP METAR 2022/06/28 23:56 UTC NOAA

KSOP 282356Z AUTO 02004KT 10SM BKN060 BKN080 OVC110 26/16 A3019 RMK AO2 SLP225 6//// T02610156 10289 20261 53005 TSNO


Station Type Date Time Source
KSOP Decoded METAR 2022/06/28 23:56 UTC NOAA

Pinehurst/Southern Pines, Moore County Airport, NC, United States (KSOP) 35-14N 079-24W
Jun 28, 2022 - 07:56 PM EDT / 2022.06.28 2356 UTC
Wind: from the NNE (020 degrees) at 5 MPH (4 KT):0
Visibility: 10 mile(s):0
Sky conditions: overcast
Temperature: 79.0 F (26.1 C)
Dew Point: 60.1 F (15.6 C)
Relative Humidity: 52%
Pressure (altimeter): 30.19 in. Hg (1022 hPa)
Pressure tendency: 0.01 inches (0.5 hPa) higher than three hours ago
ob: KSOP 282356Z AUTO 02004KT 10SM BKN060 BKN080 OVC110 26/16 A3019 RMK AO2 SLP225 6//// T02610156 10289 20261 53005 TSNO
cycle: 0

Station Type Date Time Source
KSOP TAF UTC NOAA

Error!

Example: see airport list